Time;durP1;ratioP1;P1;durP2;ratioP2;P2;SDS_P1;SDS_P2;PMS_P1;PMS_P2;Temp;Humidity;BMP_temperature;BMP_pressure;BME280_temperature;BME280_humidity;BME280_pressure;Samples;Min_cycle;Max_cycle;Signal;HPM_P1;HPM_P2
2024/01/14 00:01:30;;;;;;;17.83;10.53;;;;;;;-142.06;100.00;64312.41;5037646;28;20673;-82
2024/01/14 00:04:00;;;;;;;19.80;11.87;;;;;;;-142.06;100.00;64312.41;5036192;28;20202;-84
2024/01/14 00:06:26;;;;;;;22.30;12.27;;;;;;;-142.06;100.00;64312.41;5020602;28;20205;-81
2024/01/14 00:08:53;;;;;;;18.47;11.37;;;;;;;-142.06;100.00;64312.41;5037626;28;20198;-80
2024/01/14 00:11:20;;;;;;;20.87;12.00;;;;;;;-142.06;100.00;64312.41;5036964;28;20239;-84
2024/01/14 00:13:49;;;;;;;20.77;11.73;;;;;;;-142.06;100.00;64312.41;5054751;28;20205;-80
2024/01/14 00:16:16;;;;;;;17.90;10.50;;;;;;;-142.06;100.00;64312.41;5053351;28;20193;-80
2024/01/14 00:18:43;;;;;;;18.13;11.13;;;;;;;-142.06;100.00;64312.41;5053285;28;20816;-82
2024/01/14 00:21:10;;;;;;;19.47;11.20;;;;;;;-142.06;100.00;64312.41;5021072;28;20197;-79
2024/01/14 00:23:37;;;;;;;19.27;10.63;;;;;;;-142.06;100.00;64312.41;5037120;28;20288;-80
2024/01/14 00:26:03;;;;;;;18.70;10.93;;;;;;;-142.06;100.00;64312.41;5038289;28;20201;-82
2024/01/14 00:28:30;;;;;;;20.10;11.37;;;;;;;-142.06;100.00;64312.41;5035732;28;20214;-80
2024/01/14 00:30:57;;;;;;;18.30;11.10;;;;;;;-142.06;100.00;64312.41;5038920;28;20209;-81
2024/01/14 00:33:24;;;;;;;18.77;10.83;;;;;;;-142.06;100.00;64312.41;5038329;28;20573;-85
2024/01/14 00:35:51;;;;;;;16.77;10.33;;;;;;;-142.06;100.00;64312.41;5022863;28;20221;-82
2024/01/14 00:38:18;;;;;;;19.33;10.70;;;;;;;-142.06;100.00;64312.41;5038317;28;20591;-85
2024/01/14 00:40:45;;;;;;;13.77;8.30;;;;;;;-142.06;100.00;64312.41;5037583;28;20263;-83
2024/01/14 00:43:11;;;;;;;14.40;9.13;;;;;;;-142.06;100.00;64312.41;5022007;28;20642;-79
2024/01/14 00:45:38;;;;;;;18.37;10.53;;;;;;;-142.06;100.00;64312.41;5018555;28;20205;-80
2024/01/14 00:48:05;;;;;;;17.60;10.60;;;;;;;-142.06;100.00;64312.41;5050024;28;20244;-81
2024/01/14 00:50:32;;;;;;;18.43;10.90;;;;;;;-142.06;100.00;64312.41;5032200;28;20197;-81
2024/01/14 00:52:59;;;;;;;18.07;10.73;;;;;;;-142.06;100.00;64312.41;5017826;28;20201;-80
2024/01/14 00:55:26;;;;;;;18.27;10.67;;;;;;;-142.06;100.00;64312.41;5033233;28;20221;-81
2024/01/14 00:57:54;;;;;;;17.03;10.77;;;;;;;-142.06;100.00;64312.41;5035131;28;20244;-81
2024/01/14 01:00:21;;;;;;;16.77;10.63;;;;;;;-142.06;100.00;64312.41;5035322;28;20217;-80
2024/01/14 01:02:49;;;;;;;17.70;11.17;;;;;;;-142.06;100.00;64312.41;5035175;28;20205;-81
2024/01/14 01:05:15;;;;;;;18.97;11.30;;;;;;;-142.06;100.00;64312.41;5033481;28;20217;-85
2024/01/14 01:07:42;;;;;;;17.87;11.03;;;;;;;-142.06;100.00;64312.41;5034842;28;20218;-81
2024/01/14 01:10:11;;;;;;;19.00;11.27;;;;;;;-142.06;100.00;64312.41;5054326;28;20669;-81
2024/01/14 01:12:39;;;;;;;17.00;9.83;;;;;;;-142.06;100.00;64312.41;5033363;28;20255;-81
2024/01/14 01:15:08;;;;;;;16.10;10.33;;;;;;;-142.06;100.00;64312.41;5018616;28;20228;-82
2024/01/14 01:17:38;;;;;;;16.83;9.97;;;;;;;-142.06;100.00;64312.41;5033491;28;20196;-80
2024/01/14 01:20:08;;;;;;;19.10;11.20;;;;;;;-142.06;100.00;64312.41;5015178;28;20201;-81
2024/01/14 01:22:34;;;;;;;18.73;11.03;;;;;;;-142.06;100.00;64312.41;5048949;28;20205;-80
2024/01/14 01:25:04;;;;;;;18.23;11.00;;;;;;;-142.06;100.00;64312.41;5041159;28;20294;-80
2024/01/14 01:27:32;;;;;;;18.70;11.40;;;;;;;-142.06;100.00;64312.41;5018078;28;20201;-80
2024/01/14 01:29:58;;;;;;;19.53;11.37;;;;;;;-142.06;100.00;64312.41;5034799;28;20201;-83
2024/01/14 01:32:26;;;;;;;20.33;11.87;;;;;;;-142.06;100.00;64312.41;5034584;28;20560;-82
2024/01/14 01:34:54;;;;;;;20.80;11.90;;;;;;;-142.06;100.00;64312.41;5034829;28;20229;-80
2024/01/14 01:37:24;;;;;;;19.17;10.93;;;;;;;-142.06;100.00;64312.41;5051256;28;20285;-79
2024/01/14 01:39:51;;;;;;;18.23;11.20;;;;;;;-142.06;100.00;64312.41;5034505;28;20736;-80
2024/01/14 01:42:17;;;;;;;16.83;11.10;;;;;;;-142.06;100.00;64312.41;5034753;28;20213;-81
2024/01/14 01:44:44;;;;;;;18.00;10.97;;;;;;;-142.06;100.00;64312.41;5018297;28;20206;-80
2024/01/14 01:47:11;;;;;;;20.63;11.37;;;;;;;-142.06;100.00;64312.41;5020860;28;20197;-80
2024/01/14 01:49:38;;;;;;;18.90;11.17;;;;;;;-142.06;100.00;64312.41;5041529;28;20209;-80
2024/01/14 01:52:06;;;;;;;20.07;11.10;;;;;;;-142.06;100.00;64312.41;5028167;28;20205;-80
2024/01/14 01:54:33;;;;;;;19.67;11.03;;;;;;;-142.06;100.00;64312.41;5034523;28;20568;-80
2024/01/14 01:57:00;;;;;;;21.10;12.43;;;;;;;-142.06;100.00;64312.41;5036939;28;20212;-82
2024/01/14 01:59:27;;;;;;;20.53;12.10;;;;;;;-142.06;100.00;64312.41;5032755;28;20201;-81
2024/01/14 02:01:58;;;;;;;18.60;11.50;;;;;;;-142.06;100.00;64312.41;5049705;28;20189;-81
2024/01/14 02:04:29;;;;;;;20.70;11.30;;;;;;;-142.06;100.00;64312.41;5035314;28;20510;-83
2024/01/14 02:06:58;;;;;;;20.73;11.90;;;;;;;-142.06;100.00;64312.41;5033075;28;20210;-81
2024/01/14 02:09:25;;;;;;;17.70;11.23;;;;;;;-142.06;100.00;64312.41;5046228;28;20236;-81
2024/01/14 02:11:52;;;;;;;18.53;11.70;;;;;;;-142.06;100.00;64312.41;5036763;28;20298;-82
2024/01/14 02:14:19;;;;;;;19.40;11.63;;;;;;;-142.06;100.00;64312.41;5034002;28;20224;-80
2024/01/14 02:16:45;;;;;;;21.37;12.27;;;;;;;-142.06;100.00;64312.41;5035686;28;20231;-81
2024/01/14 02:19:12;;;;;;;20.97;12.10;;;;;;;-142.06;100.00;64312.41;5031329;28;20202;-83
2024/01/14 02:21:42;;;;;;;20.10;11.90;;;;;;;-142.06;100.00;64312.41;5033934;28;20213;-80
2024/01/14 02:24:24;;;;;;;20.83;12.17;;;;;;;-142.06;100.00;64312.41;5031922;28;20301;-81
2024/01/14 02:26:51;;;;;;;20.53;11.87;;;;;;;-142.06;100.00;64312.41;5051822;28;20209;-79
2024/01/14 02:29:19;;;;;;;21.27;12.27;;;;;;;-142.06;100.00;64312.41;5033245;28;20209;-81
2024/01/14 02:31:46;;;;;;;19.47;12.03;;;;;;;-142.06;100.00;64312.41;5032936;28;20205;-79
2024/01/14 02:34:15;;;;;;;22.60;13.17;;;;;;;-142.06;100.00;64312.41;5020874;28;20193;-79
2024/01/14 02:36:41;;;;;;;19.43;12.27;;;;;;;-142.06;100.00;64312.41;5035092;28;20206;-80
2024/01/14 02:39:09;;;;;;;22.90;12.47;;;;;;;-142.06;100.00;64312.41;5021067;28;20194;-81
2024/01/14 02:41:36;;;;;;;18.63;11.90;;;;;;;-142.06;100.00;64312.41;5034027;28;20229;-80
2024/01/14 02:44:03;;;;;;;18.77;11.47;;;;;;;-142.06;100.00;64312.41;5031424;28;20197;-82
2024/01/14 02:46:31;;;;;;;19.73;11.67;;;;;;;-142.06;100.00;64312.41;5034736;28;20205;-80
2024/01/14 02:48:58;;;;;;;21.20;12.73;;;;;;;-142.06;100.00;64312.41;5050653;28;20291;-79
2024/01/14 02:51:25;;;;;;;19.53;12.13;;;;;;;-142.06;100.00;64312.41;5051337;28;20206;-80
2024/01/14 02:53:51;;;;;;;20.00;11.93;;;;;;;-142.06;100.00;64312.41;5052500;28;20201;-79
2024/01/14 02:56:18;;;;;;;22.27;12.23;;;;;;;-142.06;100.00;64312.41;5035132;28;20221;-80
2024/01/14 02:58:45;;;;;;;21.43;11.27;;;;;;;-142.06;100.00;64312.41;5054636;28;20714;-81
2024/01/14 03:01:12;;;;;;;20.10;11.83;;;;;;;-142.06;100.00;64312.41;5052406;28;20194;-80
2024/01/14 03:03:39;;;;;;;16.97;10.90;;;;;;;-142.06;100.00;64312.41;5026393;28;20210;-80
2024/01/14 03:06:07;;;;;;;18.30;11.27;;;;;;;-142.06;100.00;64312.41;5037631;28;20204;-81
2024/01/14 03:08:34;;;;;;;18.07;11.17;;;;;;;-142.06;100.00;64312.41;5036969;28;20202;-80
2024/01/14 03:11:01;;;;;;;18.27;11.43;;;;;;;-142.06;100.00;64312.41;5039253;28;20267;-81
2024/01/14 03:13:28;;;;;;;18.70;10.77;;;;;;;-142.06;100.00;64312.41;5038975;28;20252;-80
2024/01/14 03:15:55;;;;;;;18.93;10.37;;;;;;;-142.06;100.00;64312.41;5053255;28;20244;-82
2024/01/14 03:18:21;;;;;;;16.20;10.00;;;;;;;-142.06;100.00;64312.41;5056125;28;20248;-83
2024/01/14 03:20:48;;;;;;;17.33;10.57;;;;;;;-142.06;100.00;64312.41;5040229;28;20197;-83
2024/01/14 03:23:15;;;;;;;15.77;9.50;;;;;;;-142.06;100.00;64312.41;5040267;28;20287;-85
2024/01/14 03:25:42;;;;;;;16.10;9.57;;;;;;;-142.06;100.00;64312.41;5039372;28;20209;-82
2024/01/14 03:28:09;;;;;;;17.10;10.03;;;;;;;-142.06;100.00;64312.41;5051222;28;20201;-80
2024/01/14 03:30:35;;;;;;;15.83;9.77;;;;;;;-142.06;100.00;64312.41;5023918;28;20222;-79
2024/01/14 03:33:02;;;;;;;15.23;9.10;;;;;;;-142.06;100.00;64312.41;5053292;28;20193;-79
2024/01/14 03:35:29;;;;;;;15.93;9.23;;;;;;;-142.06;100.00;64312.41;5055929;28;20692;-81
2024/01/14 03:37:56;;;;;;;15.90;9.47;;;;;;;-142.06;100.00;64312.41;5053302;28;20209;-80
2024/01/14 03:40:23;;;;;;;16.00;9.50;;;;;;;-142.06;100.00;64312.41;5039567;28;20198;-80
2024/01/14 03:42:50;;;;;;;16.43;9.50;;;;;;;-142.06;100.00;64312.41;5026924;28;20217;-80
2024/01/14 03:45:17;;;;;;;15.13;9.30;;;;;;;-142.06;100.00;64312.41;5020268;28;20197;-79
2024/01/14 03:47:43;;;;;;;14.93;9.10;;;;;;;-142.06;100.00;64312.41;5034984;28;20245;-80
2024/01/14 03:50:10;;;;;;;15.43;9.07;;;;;;;-142.06;100.00;64312.41;5035154;28;20208;-80
2024/01/14 03:52:37;;;;;;;15.47;9.20;;;;;;;-142.06;100.00;64312.41;5035721;28;20270;-81
2024/01/14 03:55:05;;;;;;;15.60;8.93;;;;;;;-142.06;100.00;64312.41;5033309;28;20220;-80
2024/01/14 03:57:31;;;;;;;15.00;9.10;;;;;;;-142.06;100.00;64312.41;5033574;28;20764;-83
2024/01/14 03:59:58;;;;;;;13.53;8.17;;;;;;;-142.06;100.00;64312.41;5036179;28;20292;-79
2024/01/14 04:02:26;;;;;;;14.90;8.07;;;;;;;-142.06;100.00;64312.41;5017299;28;20233;-82
2024/01/14 04:04:53;;;;;;;15.23;8.40;;;;;;;-142.06;100.00;64312.41;5051575;28;20201;-79
2024/01/14 04:07:19;;;;;;;12.03;7.53;;;;;;;-142.06;100.00;64312.41;5053364;28;20194;-79
2024/01/14 04:09:46;;;;;;;11.03;7.17;;;;;;;-142.06;100.00;64312.41;5034759;28;20213;-80
2024/01/14 04:12:13;;;;;;;12.27;7.53;;;;;;;-142.06;100.00;64312.41;5019619;28;20210;-79
2024/01/14 04:14:40;;;;;;;11.13;6.80;;;;;;;-142.06;100.00;64312.41;5052175;28;20224;-79
2024/01/14 04:17:07;;;;;;;9.27;6.13;;;;;;;-142.06;100.00;64312.41;5019956;28;20292;-81
2024/01/14 04:19:35;;;;;;;9.77;6.20;;;;;;;-142.06;100.00;64312.41;5034919;28;20245;-82
2024/01/14 04:22:01;;;;;;;10.40;6.00;;;;;;;-142.06;100.00;64312.41;5036115;28;20197;-81
2024/01/14 04:24:29;;;;;;;9.90;6.23;;;;;;;-142.06;100.00;64312.41;5053276;28;20262;-80
2024/01/14 04:26:55;;;;;;;8.97;5.67;;;;;;;-142.06;100.00;64312.41;5022124;28;20270;-79
2024/01/14 04:29:22;;;;;;;8.60;5.33;;;;;;;-142.06;100.00;64312.41;5035319;28;20207;-79
2024/01/14 04:31:49;;;;;;;9.13;5.33;;;;;;;-142.06;100.00;64312.41;5035838;28;20201;-79
2024/01/14 04:34:16;;;;;;;6.83;4.57;;;;;;;-142.06;100.00;64312.41;5020304;28;20206;-80
2024/01/14 04:36:43;;;;;;;7.93;5.27;;;;;;;-142.06;100.00;64312.41;5017650;28;20217;-80
2024/01/14 04:39:10;;;;;;;8.07;4.63;;;;;;;-142.06;100.00;64312.41;5053177;28;20658;-80
2024/01/14 04:41:37;;;;;;;8.60;4.87;;;;;;;-142.06;100.00;64312.41;5019034;28;20225;-80
2024/01/14 04:44:04;;;;;;;7.70;4.90;;;;;;;-142.06;100.00;64312.41;5022135;28;20202;-80
2024/01/14 04:46:30;;;;;;;9.50;5.40;;;;;;;-142.06;100.00;64312.41;5019234;28;20229;-79
2024/01/14 04:48:58;;;;;;;7.27;4.70;;;;;;;-142.06;100.00;64312.41;5017070;28;20287;-80
2024/01/14 04:51:25;;;;;;;8.63;5.10;;;;;;;-142.06;100.00;64312.41;5052063;28;20268;-83
2024/01/14 04:53:52;;;;;;;9.50;5.37;;;;;;;-142.06;100.00;64312.41;5035006;28;20220;-80
2024/01/14 04:56:18;;;;;;;9.57;5.53;;;;;;;-142.06;100.00;64312.41;5052716;28;20303;-81
2024/01/14 04:58:45;;;;;;;10.43;5.00;;;;;;;-142.06;100.00;64312.41;5022533;28;20197;-82
2024/01/14 05:01:12;;;;;;;6.73;4.40;;;;;;;-142.06;100.00;64312.41;5019145;28;20197;-81
2024/01/14 05:03:39;;;;;;;8.07;5.00;;;;;;;-142.06;100.00;64312.41;5035211;28;20636;-81
2024/01/14 05:06:06;;;;;;;7.60;4.67;;;;;;;-142.06;100.00;64312.41;5012444;28;20274;-81
2024/01/14 05:08:33;;;;;;;6.87;4.13;;;;;;;-142.06;100.00;64312.41;5035018;28;20193;-80
2024/01/14 05:11:00;;;;;;;8.37;5.40;;;;;;;-142.06;100.00;64312.41;5032695;28;20253;-80
2024/01/14 05:13:26;;;;;;;8.73;5.00;;;;;;;-142.06;100.00;64312.41;5034941;28;20256;-80
2024/01/14 05:15:53;;;;;;;6.97;4.70;;;;;;;-142.06;100.00;64312.41;5035296;28;20244;-79
2024/01/14 05:18:20;;;;;;;7.60;4.70;;;;;;;-142.06;100.00;64312.41;5018754;28;20202;-80
2024/01/14 05:20:47;;;;;;;8.03;4.70;;;;;;;-142.06;100.00;64312.41;5043622;28;20213;-80
2024/01/14 05:23:14;;;;;;;6.67;4.47;;;;;;;-142.06;100.00;64312.41;5035445;28;20638;-80
2024/01/14 05:25:41;;;;;;;6.97;4.93;;;;;;;-142.06;100.00;64312.41;5034248;28;20223;-79
2024/01/14 05:28:08;;;;;;;7.30;4.70;;;;;;;-142.06;100.00;64312.41;5034242;28;20256;-79
2024/01/14 05:30:35;;;;;;;6.07;4.20;;;;;;;-142.06;100.00;64312.41;5036672;28;20233;-79
2024/01/14 05:33:02;;;;;;;6.73;4.07;;;;;;;-142.06;100.00;64312.41;5017786;28;20235;-81
2024/01/14 05:35:30;;;;;;;7.50;4.40;;;;;;;-142.06;100.00;64312.41;5034913;28;20217;-81
2024/01/14 05:37:56;;;;;;;5.90;4.13;;;;;;;-142.06;100.00;64312.41;5051724;28;20251;-79
2024/01/14 05:40:23;;;;;;;6.47;4.10;;;;;;;-142.06;100.00;64312.41;5034877;28;20201;-81
2024/01/14 05:42:52;;;;;;;6.43;4.40;;;;;;;-142.06;100.00;64312.41;5019767;28;20264;-84
2024/01/14 05:45:19;;;;;;;5.73;3.97;;;;;;;-142.06;100.00;64312.41;5035117;28;20224;-82
2024/01/14 05:47:46;;;;;;;5.90;4.20;;;;;;;-142.06;100.00;64312.41;5033387;28;20233;-81
2024/01/14 05:50:13;;;;;;;6.37;3.87;;;;;;;-142.06;100.00;64312.41;5034608;28;20215;-82
2024/01/14 05:52:40;;;;;;;5.80;3.93;;;;;;;-142.06;100.00;64312.41;5051961;28;20192;-82
2024/01/14 05:55:08;;;;;;;6.17;4.30;;;;;;;-142.06;100.00;64312.41;5039237;28;20209;-80
2024/01/14 05:57:35;;;;;;;5.73;3.70;;;;;;;-142.06;100.00;64312.41;5036294;28;20197;-80
2024/01/14 06:00:02;;;;;;;5.80;3.83;;;;;;;-142.06;100.00;64312.41;5035290;28;20228;-83
2024/01/14 06:02:32;;;;;;;7.13;4.30;;;;;;;-142.06;100.00;64312.41;5053242;28;20219;-83
2024/01/14 06:04:59;;;;;;;5.80;3.93;;;;;;;-142.06;100.00;64312.41;5035693;28;20235;-84
2024/01/14 06:07:26;;;;;;;5.80;3.60;;;;;;;-142.06;100.00;64312.41;5053979;28;20197;-84
2024/01/14 06:09:53;;;;;;;6.13;3.97;;;;;;;-142.06;100.00;64312.41;5041524;28;20204;-84
2024/01/14 06:12:20;;;;;;;6.67;4.10;;;;;;;-142.06;100.00;64312.41;5052014;28;20221;-82
2024/01/14 06:14:47;;;;;;;5.40;3.40;;;;;;;-142.06;100.00;64312.41;5034300;28;20220;-81
2024/01/14 06:17:13;;;;;;;6.07;3.70;;;;;;;-142.06;100.00;64312.41;5016438;28;20282;-82
2024/01/14 06:19:41;;;;;;;5.17;3.40;;;;;;;-142.06;100.00;64312.41;5033895;28;20197;-82
2024/01/14 06:22:08;;;;;;;4.70;3.37;;;;;;;-142.06;100.00;64312.41;5031269;28;20190;-80
2024/01/14 06:24:35;;;;;;;5.63;3.57;;;;;;;-142.06;100.00;64312.41;5017606;28;20213;-80
2024/01/14 06:27:02;;;;;;;4.90;3.07;;;;;;;-142.06;100.00;64312.41;5034243;28;20193;-84
2024/01/14 06:29:29;;;;;;;4.77;3.13;;;;;;;-142.06;100.00;64312.41;5017881;28;20205;-79
2024/01/14 06:31:58;;;;;;;4.77;3.17;;;;;;;-142.06;100.00;64312.41;5035017;28;20213;-85
2024/01/14 06:34:25;;;;;;;4.27;2.90;;;;;;;-142.06;100.00;64312.41;5037802;28;20688;-84
2024/01/14 06:36:52;;;;;;;4.80;3.17;;;;;;;-142.06;100.00;64312.41;5038083;28;20217;-80
2024/01/14 06:39:18;;;;;;;4.70;3.10;;;;;;;-142.06;100.00;64312.41;5037638;28;20267;-81
2024/01/14 06:41:46;;;;;;;5.00;3.57;;;;;;;-142.06;100.00;64312.41;5038050;28;20228;-80
2024/01/14 06:44:16;;;;;;;5.93;3.80;;;;;;;-142.06;100.00;64312.41;5037735;28;20205;-82
2024/01/14 06:46:43;;;;;;;4.13;3.20;;;;;;;-142.06;100.00;64312.41;5037037;28;20259;-80
2024/01/14 06:49:10;;;;;;;5.07;3.10;;;;;;;-142.06;100.00;64312.41;5037046;28;20229;-83
2024/01/14 06:51:42;;;;;;;4.43;3.00;;;;;;;-142.06;100.00;64312.41;5026974;28;20193;-80
2024/01/14 06:54:09;;;;;;;4.83;3.40;;;;;;;-142.06;100.00;64312.41;5052330;28;20194;-79
2024/01/14 06:56:43;;;;;;;5.37;3.13;;;;;;;-142.06;100.00;64312.41;5054225;28;20303;-80
2024/01/14 06:59:17;;;;;;;5.83;3.27;;;;;;;-142.06;100.00;64312.41;5020920;28;20197;-80
2024/01/14 07:01:48;;;;;;;4.23;3.00;;;;;;;-142.06;100.00;64312.41;5021930;28;20219;-81
2024/01/14 07:04:16;;;;;;;4.33;2.90;;;;;;;-142.06;100.00;64312.41;5020991;28;20205;-80
2024/01/14 07:06:43;;;;;;;5.10;2.73;;;;;;;-142.06;100.00;64312.41;5037623;28;20193;-80
2024/01/14 07:09:12;;;;;;;4.60;2.90;;;;;;;-142.06;100.00;64312.41;5037146;28;20208;-81
2024/01/14 07:11:40;;;;;;;3.90;2.80;;;;;;;-142.06;100.00;64312.41;5021304;28;20650;-80
2024/01/14 07:14:07;;;;;;;4.67;2.87;;;;;;;-142.06;100.00;64312.41;5037774;28;20193;-79
2024/01/14 07:16:35;;;;;;;4.77;3.20;;;;;;;-142.06;100.00;64312.41;5028611;28;20609;-80
2024/01/14 07:19:02;;;;;;;4.67;3.07;;;;;;;-142.06;100.00;64312.41;5029527;28;20253;-80
2024/01/14 07:21:30;;;;;;;4.10;3.07;;;;;;;-142.06;100.00;64312.41;5037248;28;20194;-81
2024/01/14 07:23:58;;;;;;;3.77;2.70;;;;;;;-142.06;100.00;64312.41;5055326;28;20256;-80
2024/01/14 07:26:25;;;;;;;4.73;3.20;;;;;;;-142.06;100.00;64312.41;5021643;28;20240;-83
2024/01/14 07:28:52;;;;;;;4.93;3.33;;;;;;;-142.06;100.00;64312.41;5026581;28;20646;-80
2024/01/14 07:31:23;;;;;;;4.83;3.50;;;;;;;-142.06;100.00;64312.41;5037161;28;20700;-81
2024/01/14 07:33:50;;;;;;;5.73;3.17;;;;;;;-142.06;100.00;64312.41;5025825;28;20226;-79
2024/01/14 07:36:19;;;;;;;5.00;3.10;;;;;;;-142.06;100.00;64312.41;5046483;28;20222;-82
2024/01/14 07:38:46;;;;;;;4.70;2.90;;;;;;;-142.06;100.00;64312.41;5020736;28;20296;-80
2024/01/14 07:41:13;;;;;;;3.97;3.00;;;;;;;-142.06;100.00;64312.41;5036498;28;20194;-81
2024/01/14 07:43:40;;;;;;;4.30;3.10;;;;;;;-142.06;100.00;64312.41;5020278;28;20225;-80
2024/01/14 07:46:08;;;;;;;4.20;3.20;;;;;;;-142.06;100.00;64312.41;5035989;28;20206;-80
2024/01/14 07:48:35;;;;;;;6.07;2.93;;;;;;;-142.06;100.00;64312.41;5050381;28;20639;-81
2024/01/14 07:51:02;;;;;;;4.50;2.93;;;;;;;-142.06;100.00;64312.41;5036548;28;20202;-80
2024/01/14 07:53:30;;;;;;;4.23;3.20;;;;;;;-142.06;100.00;64312.41;5023085;28;20332;-80
2024/01/14 07:55:56;;;;;;;3.83;2.70;;;;;;;-142.06;100.00;64312.41;5067024;28;20210;-80
2024/01/14 07:58:24;;;;;;;3.90;2.93;;;;;;;-142.06;100.00;64312.41;5053636;28;20251;-80
2024/01/14 08:00:51;;;;;;;3.73;2.77;;;;;;;-142.06;100.00;64312.41;5029764;28;20186;-82
2024/01/14 08:03:31;;;;;;;5.27;3.30;;;;;;;-142.06;100.00;64312.41;5035494;28;20228;-82
2024/01/14 08:05:59;;;;;;;3.73;3.00;;;;;;;-142.06;100.00;64312.41;5019195;28;20608;-80
2024/01/14 08:08:27;;;;;;;5.83;3.10;;;;;;;-142.06;100.00;64312.41;5020636;28;20209;-81
2024/01/14 08:10:54;;;;;;;4.60;3.17;;;;;;;-142.06;100.00;64312.41;5023794;28;20209;-81
2024/01/14 08:13:21;;;;;;;6.23;3.93;;;;;;;-142.06;100.00;64312.41;5020059;28;20196;-84
2024/01/14 08:15:48;;;;;;;4.90;4.07;;;;;;;-142.06;100.00;64312.41;5038644;28;20213;-80
2024/01/14 08:18:28;;;;;;;6.50;5.10;;;;;;;-142.06;100.00;64312.41;5018478;28;20205;-81
2024/01/14 08:20:55;;;;;;;5.43;3.67;;;;;;;-142.06;100.00;64312.41;5032313;28;20220;-83
2024/01/14 08:23:22;;;;;;;8.03;5.00;;;;;;;-142.06;100.00;64312.41;5020243;28;20193;-83
2024/01/14 08:25:49;;;;;;;4.90;3.60;;;;;;;-142.06;100.00;64312.41;5050346;28;20201;-82
2024/01/14 08:28:16;;;;;;;5.17;3.53;;;;;;;-142.06;100.00;64312.41;5036839;28;20217;-80
2024/01/14 08:30:42;;;;;;;4.20;3.60;;;;;;;-142.06;100.00;64312.41;5012831;28;20286;-81
2024/01/14 08:33:09;;;;;;;5.93;4.97;;;;;;;-142.06;100.00;64312.41;5035680;28;20200;-80
2024/01/14 08:35:37;;;;;;;4.63;3.63;;;;;;;-142.06;100.00;64312.41;5030581;28;20263;-81
2024/01/14 08:38:04;;;;;;;5.37;4.20;;;;;;;-142.06;100.00;64312.41;5032733;28;20232;-80
2024/01/14 08:40:30;;;;;;;7.37;6.10;;;;;;;-142.06;100.00;64312.41;5051846;28;20193;-81
2024/01/14 08:42:57;;;;;;;6.03;4.87;;;;;;;-142.06;100.00;64312.41;5029703;28;20218;-83
2024/01/14 08:45:24;;;;;;;13.57;10.47;;;;;;;-142.06;100.00;64312.41;5045371;28;20193;-81
2024/01/14 08:47:51;;;;;;;11.13;8.87;;;;;;;-142.06;100.00;64312.41;5053545;28;20257;-80
2024/01/14 08:50:18;;;;;;;11.27;8.33;;;;;;;-142.06;100.00;64312.41;5037099;28;20211;-83
2024/01/14 08:52:45;;;;;;;4.97;4.03;;;;;;;-142.06;100.00;64312.41;5037808;28;20225;-84
2024/01/14 08:55:11;;;;;;;7.77;6.00;;;;;;;-142.06;100.00;64312.41;5058468;28;20193;-79
2024/01/14 08:57:39;;;;;;;6.17;3.80;;;;;;;-142.06;100.00;64312.41;5052936;28;20209;-79
2024/01/14 09:00:06;;;;;;;5.63;4.47;;;;;;;-142.06;100.00;64312.41;5051653;28;20239;-80
2024/01/14 09:02:33;;;;;;;5.20;3.90;;;;;;;-142.06;100.00;64312.41;5023206;28;20196;-80
2024/01/14 09:05:00;;;;;;;4.80;3.30;;;;;;;-142.06;100.00;64312.41;5031729;28;21100;-81
2024/01/14 09:07:27;;;;;;;2.93;2.50;;;;;;;-142.06;100.00;64312.41;5033981;28;20217;-80
2024/01/14 09:09:54;;;;;;;3.73;2.70;;;;;;;-142.06;100.00;64312.41;5020043;28;20201;-81
2024/01/14 09:12:20;;;;;;;2.73;2.10;;;;;;;-142.06;100.00;64312.41;5018971;28;20723;-80
2024/01/14 09:14:48;;;;;;;2.73;1.97;;;;;;;-142.06;100.00;64312.41;5041304;28;20204;-79
2024/01/14 09:17:15;;;;;;;3.27;2.27;;;;;;;-142.06;100.00;64312.41;5035131;28;20271;-81
2024/01/14 09:19:44;;;;;;;3.07;2.10;;;;;;;-142.06;100.00;64312.41;5051302;28;20220;-82
2024/01/14 09:22:11;;;;;;;2.33;1.90;;;;;;;-142.06;100.00;64312.41;5055537;28;20198;-80
2024/01/14 09:24:42;;;;;;;2.67;2.00;;;;;;;-142.06;100.00;64312.41;5020255;28;20227;-79
2024/01/14 09:27:10;;;;;;;3.10;2.20;;;;;;;-142.06;100.00;64312.41;5051429;28;20213;-80
2024/01/14 09:29:37;;;;;;;3.63;1.87;;;;;;;-142.06;100.00;64312.41;5021331;28;20201;-80
2024/01/14 09:32:04;;;;;;;3.40;2.33;;;;;;;-142.06;100.00;64312.41;5051182;28;20189;-81
2024/01/14 09:34:31;;;;;;;3.37;2.00;;;;;;;-142.06;100.00;64312.41;5036182;28;20729;-80
2024/01/14 09:36:58;;;;;;;2.63;1.73;;;;;;;-142.06;100.00;64312.41;5037414;28;20696;-80
2024/01/14 09:39:24;;;;;;;3.00;2.50;;;;;;;-142.06;100.00;64312.41;5037713;28;20648;-81
2024/01/14 09:41:57;;;;;;;3.30;1.97;;;;;;;-142.06;100.00;64312.41;5046893;28;20300;-80
2024/01/14 09:44:24;;;;;;;2.80;1.60;;;;;;;-142.06;100.00;64312.41;5051923;28;20208;-83
2024/01/14 09:46:51;;;;;;;2.37;1.63;;;;;;;-142.06;100.00;64312.41;5031621;28;20740;-82
2024/01/14 09:49:21;;;;;;;2.43;1.90;;;;;;;-142.06;100.00;64312.41;5034597;28;20260;-81
2024/01/14 09:51:49;;;;;;;2.07;1.37;;;;;;;-142.06;100.00;64312.41;5050829;28;20204;-81
2024/01/14 09:54:16;;;;;;;2.30;1.60;;;;;;;-142.06;100.00;64312.41;5050693;28;20193;-79
2024/01/14 09:56:44;;;;;;;2.00;1.50;;;;;;;-142.06;100.00;64312.41;5044216;28;20214;-80
2024/01/14 09:59:14;;;;;;;2.10;1.70;;;;;;;-142.06;100.00;64312.41;5049720;28;20295;-83
2024/01/14 10:01:41;;;;;;;1.97;1.50;;;;;;;-142.06;100.00;64312.41;5032264;28;20193;-80
2024/01/14 10:04:08;;;;;;;1.80;1.57;;;;;;;-142.06;100.00;64312.41;5034585;28;20233;-82
2024/01/14 10:06:35;;;;;;;2.17;1.73;;;;;;;-142.06;100.00;64312.41;5020196;28;20202;-80
2024/01/14 10:09:02;;;;;;;2.20;1.83;;;;;;;-142.06;100.00;64312.41;5043535;28;20221;-80
2024/01/14 10:11:29;;;;;;;1.87;1.47;;;;;;;-142.06;100.00;64312.41;5054577;28;20190;-80
2024/01/14 10:13:56;;;;;;;1.93;1.50;;;;;;;-142.06;100.00;64312.41;5037501;28;20217;-83
2024/01/14 10:16:23;;;;;;;1.90;1.50;;;;;;;-142.06;100.00;64312.41;5036672;28;20247;-80
2024/01/14 10:19:10;;;;;;;2.13;1.40;;;;;;;-142.06;100.00;64312.41;5038569;28;20190;-83
2024/01/14 10:21:37;;;;;;;2.00;1.50;;;;;;;-142.06;100.00;64312.41;5038084;28;20193;-81
2024/01/14 10:24:04;;;;;;;2.70;1.60;;;;;;;-142.06;100.00;64312.41;5019179;28;20210;-82
2024/01/14 10:26:32;;;;;;;1.83;1.40;;;;;;;-142.06;100.00;64312.41;5021335;28;20726;-80
2024/01/14 10:29:04;;;;;;;2.80;1.70;;;;;;;-142.06;100.00;64312.41;5036370;28;20229;-83
2024/01/14 10:31:31;;;;;;;2.10;1.40;;;;;;;-142.06;100.00;64312.41;5058943;28;20210;-80
2024/01/14 10:34:00;;;;;;;1.70;1.27;;;;;;;-142.06;100.00;64312.41;5053614;28;20201;-84
2024/01/14 10:36:28;;;;;;;1.47;1.37;;;;;;;-142.06;100.00;64312.41;5035682;28;20207;-80
2024/01/14 10:38:57;;;;;;;1.60;1.30;;;;;;;-142.06;100.00;64312.41;5053978;28;20214;-84
2024/01/14 10:41:24;;;;;;;1.30;1.10;;;;;;;-142.06;100.00;64312.41;5037620;28;20205;-84
2024/01/14 10:43:51;;;;;;;1.67;1.10;;;;;;;-142.06;100.00;64312.41;5054007;28;20194;-81
2024/01/14 10:46:20;;;;;;;2.03;1.40;;;;;;;-142.06;100.00;64312.41;5032479;28;20206;-80
2024/01/14 10:48:52;;;;;;;2.57;2.03;;;;;;;-142.06;100.00;64312.41;5021226;28;20233;-79
2024/01/14 10:51:20;;;;;;;1.87;1.10;;;;;;;-142.06;100.00;64312.41;5036363;28;20284;-82
2024/01/14 10:54:01;;;;;;;1.57;1.27;;;;;;;-142.06;100.00;64312.41;5033232;28;20197;-80
2024/01/14 10:56:34;;;;;;;1.50;1.10;;;;;;;-142.06;100.00;64312.41;5054352;28;20241;-80
2024/01/14 10:59:03;;;;;;;1.77;1.27;;;;;;;-142.06;100.00;64312.41;5051222;28;20217;-84
2024/01/14 11:01:31;;;;;;;1.90;1.50;;;;;;;-142.06;100.00;64312.41;5038049;28;20236;-85
2024/01/14 11:04:00;;;;;;;2.43;1.30;;;;;;;-142.06;100.00;64312.41;5039328;28;20213;-81
2024/01/14 11:06:28;;;;;;;1.87;1.20;;;;;;;-142.06;100.00;64312.41;5037850;28;20181;-81